sensor_id;sensor_type;location;lat;lon;timestamp;pressure;altitude;pressure_sealevel;temperature;humidity
46223;BME280;31943;51.410;7.564;2022-10-16T00:08:38;99819.25;;;15.37;69.90
46223;BME280;31943;51.410;7.564;2022-10-16T00:11:32;99822.72;;;15.37;69.78
46223;BME280;31943;51.410;7.564;2022-10-16T00:15:10;99824.53;;;15.34;69.82
46223;BME280;31943;51.410;7.564;2022-10-16T00:24:28;99827.19;;;15.32;69.72
46223;BME280;31943;51.410;7.564;2022-10-16T00:27:05;99826.31;;;15.32;69.76
46223;BME280;31943;51.410;7.564;2022-10-16T00:29:37;99824.56;;;15.31;69.74
46223;BME280;31943;51.410;7.564;2022-10-16T00:32:07;99827.19;;;15.32;69.66
46223;BME280;31943;51.410;7.564;2022-10-16T00:38:06;99840.38;;;15.29;69.63
46223;BME280;31943;51.410;7.564;2022-10-16T00:50:36;99838.63;;;15.30;69.69
46223;BME280;31943;51.410;7.564;2022-10-16T00:53:22;99840.41;;;15.28;69.90
46223;BME280;31943;51.410;7.564;2022-10-16T00:56:00;99836.09;;;15.23;69.72
46223;BME280;31943;51.410;7.564;2022-10-16T00:59:19;99833.47;;;15.23;69.87
46223;BME280;31943;51.410;7.564;2022-10-16T01:01:48;99835.25;;;15.20;69.72
46223;BME280;31943;51.410;7.564;2022-10-16T01:04:23;99838.78;;;15.19;69.84
46223;BME280;31943;51.410;7.564;2022-10-16T01:07:06;99836.13;;;15.19;69.66
46223;BME280;31943;51.410;7.564;2022-10-16T01:09:52;99842.28;;;15.19;69.65
46223;BME280;31943;51.410;7.564;2022-10-16T01:15:24;99838.00;;;15.14;69.77
46223;BME280;31943;51.410;7.564;2022-10-16T01:21:25;99835.41;;;15.09;69.84
46223;BME280;31943;51.410;7.564;2022-10-16T01:33:55;99850.34;;;15.07;69.93
46223;BME280;31943;51.410;7.564;2022-10-16T01:36:39;99859.13;;;15.06;69.93
46223;BME280;31943;51.410;7.564;2022-10-16T01:42:30;99853.88;;;15.05;69.85
46223;BME280;31943;51.410;7.564;2022-10-16T01:45:46;99849.50;;;15.05;70.01
46223;BME280;31943;51.410;7.564;2022-10-16T01:48:17;99852.97;;;15.07;69.81
46223;BME280;31943;51.410;7.564;2022-10-16T01:51:35;99848.63;;;15.06;70.01
46223;BME280;31943;51.410;7.564;2022-10-16T01:54:22;99838.09;;;15.06;69.94
46223;BME280;31943;51.410;7.564;2022-10-16T01:57:07;99846.00;;;15.06;69.92
46223;BME280;31943;51.410;7.564;2022-10-16T02:00:13;99841.59;;;15.05;69.93
46223;BME280;31943;51.410;7.564;2022-10-16T02:06:16;99845.22;;;14.99;69.90
46223;BME280;31943;51.410;7.564;2022-10-16T02:09:10;99841.75;;;14.96;70.18
46223;BME280;31943;51.410;7.564;2022-10-16T02:11:57;99846.22;;;14.91;69.91
46223;BME280;31943;51.410;7.564;2022-10-16T02:14:44;99848.81;;;14.92;70.30
46223;BME280;31943;51.410;7.564;2022-10-16T02:26:11;99851.50;;;14.88;70.22
46223;BME280;31943;51.410;7.564;2022-10-16T02:29:02;99847.16;;;14.87;70.57
46223;BME280;31943;51.410;7.564;2022-10-16T02:32:05;99858.53;;;14.86;70.34
46223;BME280;31943;51.410;7.564;2022-10-16T02:35:05;99853.28;;;14.86;70.33
46223;BME280;31943;51.410;7.564;2022-10-16T02:40:44;99849.00;;;14.80;70.37
46223;BME280;31943;51.410;7.564;2022-10-16T02:47:08;99849.78;;;14.83;70.01
46223;BME280;31943;51.410;7.564;2022-10-16T02:49:45;99852.50;;;14.79;70.32
46223;BME280;31943;51.410;7.564;2022-10-16T02:52:15;99850.78;;;14.78;70.50
46223;BME280;31943;51.410;7.564;2022-10-16T02:58:21;99849.00;;;14.78;70.34
46223;BME280;31943;51.410;7.564;2022-10-16T03:11:25;99855.22;;;14.71;70.87
46223;BME280;31943;51.410;7.564;2022-10-16T03:14:27;99849.97;;;14.70;71.05
46223;BME280;31943;51.410;7.564;2022-10-16T03:16:59;99853.53;;;14.67;70.87
46223;BME280;31943;51.410;7.564;2022-10-16T03:23:00;99848.25;;;14.70;70.89
46223;BME280;31943;51.410;7.564;2022-10-16T03:25:29;99858.75;;;14.70;70.76
46223;BME280;31943;51.410;7.564;2022-10-16T03:28:21;99858.66;;;14.76;71.02
46223;BME280;31943;51.410;7.564;2022-10-16T03:34:15;99846.41;;;14.77;70.41
46223;BME280;31943;51.410;7.564;2022-10-16T03:40:04;99844.63;;;14.77;70.22
46223;BME280;31943;51.410;7.564;2022-10-16T03:42:31;99838.50;;;14.80;70.22
46223;BME280;31943;51.410;7.564;2022-10-16T03:45:18;99836.75;;;14.79;70.11
46223;BME280;31943;51.410;7.564;2022-10-16T03:47:53;99839.38;;;14.77;70.07
46223;BME280;31943;51.410;7.564;2022-10-16T03:50:35;99841.97;;;14.80;70.21
46223;BME280;31943;51.410;7.564;2022-10-16T03:53:02;99863.81;;;14.84;69.83
46223;BME280;31943;51.410;7.564;2022-10-16T03:56:06;99858.59;;;14.82;69.96
46223;BME280;31943;51.410;7.564;2022-10-16T03:58:48;99870.88;;;14.80;69.89
46223;BME280;31943;51.410;7.564;2022-10-16T04:01:40;99854.25;;;14.80;69.73
46223;BME280;31943;51.410;7.564;2022-10-16T04:04:07;99864.72;;;14.81;69.89
46223;BME280;31943;51.410;7.564;2022-10-16T04:06:44;99868.22;;;14.82;69.66
46223;BME280;31943;51.410;7.564;2022-10-16T04:09:14;99861.22;;;14.82;69.70
46223;BME280;31943;51.410;7.564;2022-10-16T04:12:01;99859.56;;;14.74;69.63
46223;BME280;31943;51.410;7.564;2022-10-16T04:14:32;99869.25;;;14.70;69.86
46223;BME280;31943;51.410;7.564;2022-10-16T05:09:00;99905.34;;;14.51;69.96
46223;BME280;31943;51.410;7.564;2022-10-16T05:14:11;99912.34;;;14.51;69.93
46223;BME280;31943;51.410;7.564;2022-10-16T06:04:49;100000.72;;;14.50;69.84
46223;BME280;31943;51.410;7.564;2022-10-16T06:10:19;100004.19;;;14.54;69.93
46223;BME280;31943;51.410;7.564;2022-10-16T06:12:45;100002.47;;;14.53;70.02
46223;BME280;31943;51.410;7.564;2022-10-16T06:15:11;100008.66;;;14.49;69.89
46223;BME280;31943;51.410;7.564;2022-10-16T06:17:36;100005.16;;;14.45;70.38
46223;BME280;31943;51.410;7.564;2022-10-16T06:20:05;100006.88;;;14.49;70.25
46223;BME280;31943;51.410;7.564;2022-10-16T06:22:31;100003.31;;;14.58;70.10
46223;BME280;31943;51.410;7.564;2022-10-16T06:24:57;100013.81;;;14.58;70.13
46223;BME280;31943;51.410;7.564;2022-10-16T06:27:24;100017.34;;;14.58;70.15
46223;BME280;31943;51.410;7.564;2022-10-16T06:29:50;100022.53;;;14.63;70.00
46223;BME280;31943;51.410;7.564;2022-10-16T06:32:16;100026.84;;;14.69;69.90
46223;BME280;31943;51.410;7.564;2022-10-16T06:34:42;100038.22;;;14.68;70.02
46223;BME280;31943;51.410;7.564;2022-10-16T06:37:10;100037.31;;;14.72;69.85
46223;BME280;31943;51.410;7.564;2022-10-16T06:39:37;100024.16;;;14.76;69.62
46223;BME280;31943;51.410;7.564;2022-10-16T06:42:03;100027.63;;;14.77;69.62
46223;BME280;31943;51.410;7.564;2022-10-16T06:44:29;100034.59;;;14.79;69.76
46223;BME280;31943;51.410;7.564;2022-10-16T06:46:55;100032.81;;;14.83;69.73
46223;BME280;31943;51.410;7.564;2022-10-16T06:49:20;100039.81;;;14.84;69.75
46223;BME280;31943;51.410;7.564;2022-10-16T06:51:46;100042.38;;;14.90;69.63
46223;BME280;31943;51.410;7.564;2022-10-16T06:54:14;100045.00;;;14.90;69.65
46223;BME280;31943;51.410;7.564;2022-10-16T06:56:40;100044.94;;;14.98;69.34
46223;BME280;31943;51.410;7.564;2022-10-16T06:59:08;100051.03;;;15.00;69.40
46223;BME280;31943;51.410;7.564;2022-10-16T07:01:33;100045.78;;;14.98;69.41
46223;BME280;31943;51.410;7.564;2022-10-16T07:04:00;100054.53;;;14.99;69.49
46223;BME280;31943;51.410;7.564;2022-10-16T07:06:31;100072.91;;;15.00;69.32
46223;BME280;31943;51.410;7.564;2022-10-16T07:09:00;100082.56;;;14.98;69.62
46223;BME280;31943;51.410;7.564;2022-10-16T07:11:29;100088.66;;;15.02;69.74
46223;BME280;31943;51.410;7.564;2022-10-16T07:13:56;100084.28;;;15.04;69.94
46223;BME280;31943;51.410;7.564;2022-10-16T07:16:24;100085.06;;;15.11;69.65
46223;BME280;31943;51.410;7.564;2022-10-16T07:18:50;100093.78;;;15.16;69.47
46223;BME280;31943;51.410;7.564;2022-10-16T07:21:18;100097.25;;;15.18;69.45
46223;BME280;31943;51.410;7.564;2022-10-16T07:23:45;100105.84;;;15.31;69.17
46223;BME280;31943;51.410;7.564;2022-10-16T07:26:11;100113.72;;;15.34;69.24
46223;BME280;31943;51.410;7.564;2022-10-16T07:28:38;100118.88;;;15.41;69.15
46223;BME280;31943;51.410;7.564;2022-10-16T07:31:06;100121.44;;;15.46;68.86
46223;BME280;31943;51.410;7.564;2022-10-16T07:33:33;100123.19;;;15.49;68.80
46223;BME280;31943;51.410;7.564;2022-10-16T07:36:00;100126.69;;;15.49;68.67
46223;BME280;31943;51.410;7.564;2022-10-16T07:38:25;100132.78;;;15.53;68.97
46223;BME280;31943;51.410;7.564;2022-10-16T07:40:56;100135.44;;;15.51;68.67
46223;BME280;31943;51.410;7.564;2022-10-16T07:43:22;100134.56;;;15.51;68.67
46223;BME280;31943;51.410;7.564;2022-10-16T07:45:50;100135.44;;;15.51;69.02
46223;BME280;31943;51.410;7.564;2022-10-16T07:48:17;100131.88;;;15.52;68.80
46223;BME280;31943;51.410;7.564;2022-10-16T07:50:44;100134.59;;;15.48;68.69
46223;BME280;31943;51.410;7.564;2022-10-16T07:53:12;100133.81;;;15.41;68.92
46223;BME280;31943;51.410;7.564;2022-10-16T07:55:39;100141.66;;;15.42;68.95
46223;BME280;31943;51.410;7.564;2022-10-16T07:58:05;100150.38;;;15.48;68.69
46223;BME280;31943;51.410;7.564;2022-10-16T08:00:31;100150.34;;;15.49;68.88
46223;BME280;31943;51.410;7.564;2022-10-16T08:03:00;100151.31;;;15.40;68.98
46223;BME280;31943;51.410;7.564;2022-10-16T08:05:27;100153.06;;;15.43;69.03
46223;BME280;31943;51.410;7.564;2022-10-16T08:07:54;100155.69;;;15.41;68.91
46223;BME280;31943;51.410;7.564;2022-10-16T08:10:22;100158.34;;;15.41;69.00
46223;BME280;31943;51.410;7.564;2022-10-16T08:12:49;100168.00;;;15.39;69.05
46223;BME280;31943;51.410;7.564;2022-10-16T08:15:16;100173.31;;;15.35;69.10
46223;BME280;31943;51.410;7.564;2022-10-16T08:17:43;100177.66;;;15.39;69.16
46223;BME280;31943;51.410;7.564;2022-10-16T08:20:12;100177.66;;;15.36;68.97
46223;BME280;31943;51.410;7.564;2022-10-16T08:22:39;100185.50;;;15.40;69.16
46223;BME280;31943;51.410;7.564;2022-10-16T08:25:06;100180.16;;;15.48;69.01
46223;BME280;31943;51.410;7.564;2022-10-16T08:27:32;100187.09;;;15.57;69.06
46223;BME280;31943;51.410;7.564;2022-10-16T08:29:59;100194.97;;;15.57;68.92
46223;BME280;31943;51.410;7.564;2022-10-16T08:32:24;100197.56;;;15.60;69.40
46223;BME280;31943;51.410;7.564;2022-10-16T08:34:50;100195.81;;;15.60;68.96
46223;BME280;31943;51.410;7.564;2022-10-16T08:37:18;100202.78;;;15.65;68.68
46223;BME280;31943;51.410;7.564;2022-10-16T08:39:44;100197.47;;;15.68;68.78
46223;BME280;31943;51.410;7.564;2022-10-16T08:42:16;100207.06;;;15.75;68.58
46223;BME280;31943;51.410;7.564;2022-10-16T08:48:00;100209.53;;;15.87;67.47
46223;BME280;31943;51.410;7.564;2022-10-16T08:50:32;100220.91;;;15.91;66.86
46223;BME280;31943;51.410;7.564;2022-10-16T08:53:05;100230.47;;;15.98;66.99
46223;BME280;31943;51.410;7.564;2022-10-16T08:55:38;100222.44;;;16.07;66.55
46223;BME280;31943;51.410;7.564;2022-10-16T08:58:13;100233.63;;;16.25;65.85
46223;BME280;31943;51.410;7.564;2022-10-16T09:00:42;100237.84;;;16.36;64.82
46223;BME280;31943;51.410;7.564;2022-10-16T09:03:17;100246.47;;;16.51;63.94
46223;BME280;31943;51.410;7.564;2022-10-16T09:06:04;100240.97;;;16.65;62.61
46223;BME280;31943;51.410;7.564;2022-10-16T09:08:42;100242.53;;;16.78;62.84
46223;BME280;31943;51.410;7.564;2022-10-16T09:11:17;100242.41;;;16.87;62.32
46223;BME280;31943;51.410;7.564;2022-10-16T09:33:09;100253.50;;;17.09;59.50
46223;BME280;31943;51.410;7.564;2022-10-16T09:39:51;100264.66;;;17.25;59.27
46223;BME280;31943;51.410;7.564;2022-10-16T09:43:16;100262.06;;;17.20;59.01
46223;BME280;31943;51.410;7.564;2022-10-16T09:45:54;100266.19;;;17.37;59.14
46223;BME280;31943;51.410;7.564;2022-10-16T10:09:00;100279.22;;;17.94;57.37
46223;BME280;31943;51.410;7.564;2022-10-16T10:14:27;100270.75;;;18.22;56.52
46223;BME280;31943;51.410;7.564;2022-10-16T10:17:30;100274.34;;;18.18;55.97
46223;BME280;31943;51.410;7.564;2022-10-16T10:20:25;100278.69;;;18.21;56.18
46223;BME280;31943;51.410;7.564;2022-10-16T10:23:13;100282.91;;;18.29;55.99
46223;BME280;31943;51.410;7.564;2022-10-16T10:32:04;100291.50;;;18.80;54.61
46223;BME280;31943;51.410;7.564;2022-10-16T10:34:51;100284.88;;;18.99;53.67
46223;BME280;31943;51.410;7.564;2022-10-16T10:40:39;100293.31;;;19.15;54.24
46223;BME280;31943;51.410;7.564;2022-10-16T10:43:42;100294.09;;;19.20;53.15
46223;BME280;31943;51.410;7.564;2022-10-16T10:46:38;100290.56;;;19.20;53.61
46223;BME280;31943;51.410;7.564;2022-10-16T10:50:02;100285.38;;;19.15;53.23
46223;BME280;31943;51.410;7.564;2022-10-16T10:52:59;100289.91;;;19.11;52.95
46223;BME280;31943;51.410;7.564;2022-10-16T10:55:39;100299.53;;;18.75;53.45
46223;BME280;31943;51.410;7.564;2022-10-16T10:58:42;100297.91;;;18.68;53.75
46223;BME280;31943;51.410;7.564;2022-10-16T11:01:37;100299.41;;;18.81;53.95
46223;BME280;31943;51.410;7.564;2022-10-16T11:13:49;100291.44;;;19.20;52.25
46223;BME280;31943;51.410;7.564;2022-10-16T11:20:02;100296.41;;;19.32;52.49
46223;BME280;31943;51.410;7.564;2022-10-16T11:22:56;100304.25;;;19.37;52.11
46223;BME280;31943;51.410;7.564;2022-10-16T11:25:31;100305.28;;;19.31;52.43
46223;BME280;31943;51.410;7.564;2022-10-16T11:28:02;100297.25;;;19.34;52.33
46223;BME280;31943;51.410;7.564;2022-10-16T11:34:09;100307.44;;;19.50;52.60
46223;BME280;31943;51.410;7.564;2022-10-16T11:39:43;100305.88;;;19.43;51.08
46223;BME280;31943;51.410;7.564;2022-10-16T11:45:23;100299.47;;;19.51;51.42
46223;BME280;31943;51.410;7.564;2022-10-16T11:50:40;100301.59;;;19.37;51.64
46223;BME280;31943;51.410;7.564;2022-10-16T11:57:22;100299.13;;;19.64;50.55
46223;BME280;31943;51.410;7.564;2022-10-16T11:59:57;100307.81;;;19.72;50.02
46223;BME280;31943;51.410;7.564;2022-10-16T12:02:39;100298.03;;;19.74;50.14
46223;BME280;31943;51.410;7.564;2022-10-16T12:08:15;100297.59;;;19.89;50.13
46223;BME280;31943;51.410;7.564;2022-10-16T12:14:40;100302.88;;;19.89;48.27
46223;BME280;31943;51.410;7.564;2022-10-16T12:17:24;100309.06;;;19.90;48.39
46223;BME280;31943;51.410;7.564;2022-10-16T12:28:55;100315.63;;;20.08;48.16
46223;BME280;31943;51.410;7.564;2022-10-16T12:31:45;100320.09;;;20.06;48.37
46223;BME280;31943;51.410;7.564;2022-10-16T12:53:04;100313.88;;;20.07;49.28
46223;BME280;31943;51.410;7.564;2022-10-16T12:56:15;100316.41;;;20.11;49.19
46223;BME280;31943;51.410;7.564;2022-10-16T12:59:36;100323.88;;;20.28;48.52
46223;BME280;31943;51.410;7.564;2022-10-16T13:02:35;100317.09;;;20.18;48.56
46223;BME280;31943;51.410;7.564;2022-10-16T13:05:42;100335.78;;;20.13;48.08
46223;BME280;31943;51.410;7.564;2022-10-16T13:08:45;100333.25;;;20.09;48.01
46223;BME280;31943;51.410;7.564;2022-10-16T13:11:27;100336.09;;;20.01;48.59
46223;BME280;31943;51.410;7.564;2022-10-16T13:46:22;100341.47;;;19.65;50.53
46223;BME280;31943;51.410;7.564;2022-10-16T13:51:55;100351.63;;;19.84;50.47
46223;BME280;31943;51.410;7.564;2022-10-16T13:54:28;100356.41;;;20.02;49.21
46223;BME280;31943;51.410;7.564;2022-10-16T13:57:53;100353.19;;;20.22;49.16
46223;BME280;31943;51.410;7.564;2022-10-16T14:06:40;100357.59;;;20.54;49.92
46223;BME280;31943;51.410;7.564;2022-10-16T14:32:24;100353.69;;;20.37;49.77
46223;BME280;31943;51.410;7.564;2022-10-16T14:34:56;100360.13;;;20.26;49.99
46223;BME280;31943;51.410;7.564;2022-10-16T14:37:51;100369.13;;;20.21;50.30
46223;BME280;31943;51.410;7.564;2022-10-16T14:52:09;100371.69;;;19.91;51.42
46223;BME280;31943;51.410;7.564;2022-10-16T14:54:42;100368.19;;;19.90;52.13
46223;BME280;31943;51.410;7.564;2022-10-16T15:00:42;100339.00;;;19.93;53.00
46223;BME280;31943;51.410;7.564;2022-10-16T15:03:48;100327.59;;;19.90;53.30
46223;BME280;31943;51.410;7.564;2022-10-16T16:34:24;100364.69;;;18.35;61.77
46223;BME280;31943;51.410;7.564;2022-10-16T16:40:15;100364.03;;;18.24;62.20
46223;BME280;31943;51.410;7.564;2022-10-16T16:42:53;100367.63;;;18.20;62.34
46223;BME280;31943;51.410;7.564;2022-10-16T16:48:45;100371.25;;;18.14;62.59
46223;BME280;31943;51.410;7.564;2022-10-16T17:48:31;100424.31;;;17.46;64.96
46223;BME280;31943;51.410;7.564;2022-10-16T17:56:48;100419.13;;;17.40;65.23
46223;BME280;31943;51.410;7.564;2022-10-16T18:02:22;100426.19;;;17.38;65.25
46223;BME280;31943;51.410;7.564;2022-10-16T18:14:22;100435.97;;;17.33;64.71
46223;BME280;31943;51.410;7.564;2022-10-16T18:17:28;100443.03;;;17.31;65.16
46223;BME280;31943;51.410;7.564;2022-10-16T18:20:11;100436.03;;;17.27;65.54
46223;BME280;31943;51.410;7.564;2022-10-16T18:22:38;100434.28;;;17.26;65.47
46223;BME280;31943;51.410;7.564;2022-10-16T18:25:05;100445.78;;;17.22;65.17
46223;BME280;31943;51.410;7.564;2022-10-16T18:27:33;100441.38;;;17.20;65.18
46223;BME280;31943;51.410;7.564;2022-10-16T18:29:59;100439.69;;;17.16;65.73
46223;BME280;31943;51.410;7.564;2022-10-16T18:32:26;100430.06;;;17.14;65.57
46223;BME280;31943;51.410;7.564;2022-10-16T18:34:52;100428.31;;;17.13;65.85
46223;BME280;31943;51.410;7.564;2022-10-16T18:37:19;100442.38;;;17.13;65.78
46223;BME280;31943;51.410;7.564;2022-10-16T18:39:46;100446.75;;;17.14;65.63
46223;BME280;31943;51.410;7.564;2022-10-16T18:42:12;100434.44;;;17.15;65.60
46223;BME280;31943;51.410;7.564;2022-10-16T18:44:39;100426.56;;;17.13;66.03
46223;BME280;31943;51.410;7.564;2022-10-16T18:47:05;100430.09;;;17.12;65.94
46223;BME280;31943;51.410;7.564;2022-10-16T18:49:31;100411.63;;;17.12;66.20
46223;BME280;31943;51.410;7.564;2022-10-16T18:51:58;100423.94;;;17.12;66.21
46223;BME280;31943;51.410;7.564;2022-10-16T18:54:26;100427.47;;;17.11;66.13
46223;BME280;31943;51.410;7.564;2022-10-16T18:56:52;100432.72;;;17.11;66.03
46223;BME280;31943;51.410;7.564;2022-10-16T18:59:18;100429.22;;;17.10;65.98
46223;BME280;31943;51.410;7.564;2022-10-16T19:01:48;100435.41;;;17.09;66.37
46223;BME280;31943;51.410;7.564;2022-10-16T19:04:15;100431.03;;;17.08;66.44
46223;BME280;31943;51.410;7.564;2022-10-16T19:06:45;100423.97;;;17.09;66.43
46223;BME280;31943;51.410;7.564;2022-10-16T19:09:13;100424.88;;;17.09;66.43
46223;BME280;31943;51.410;7.564;2022-10-16T19:11:40;100426.59;;;17.09;66.51
46223;BME280;31943;51.410;7.564;2022-10-16T19:14:07;100431.94;;;17.07;66.96
46223;BME280;31943;51.410;7.564;2022-10-16T19:16:35;100434.56;;;17.06;66.72
46223;BME280;31943;51.410;7.564;2022-10-16T19:19:06;100437.22;;;17.06;67.05
46223;BME280;31943;51.410;7.564;2022-10-16T19:21:33;100441.56;;;17.10;66.98
46223;BME280;31943;51.410;7.564;2022-10-16T19:24:00;100437.16;;;17.09;66.95
46223;BME280;31943;51.410;7.564;2022-10-16T19:26:29;100447.78;;;17.04;67.09
46223;BME280;31943;51.410;7.564;2022-10-16T19:28:56;100444.31;;;16.99;67.41
46223;BME280;31943;51.410;7.564;2022-10-16T19:31:24;100457.63;;;16.90;67.68
46223;BME280;31943;51.410;7.564;2022-10-16T19:33:52;100462.13;;;16.77;68.20
46223;BME280;31943;51.410;7.564;2022-10-16T19:36:21;100464.94;;;16.65;68.36
46223;BME280;31943;51.410;7.564;2022-10-16T19:38:52;100458.91;;;16.50;68.81
46223;BME280;31943;51.410;7.564;2022-10-16T19:41:18;100466.03;;;16.44;69.12
46223;BME280;31943;51.410;7.564;2022-10-16T19:43:45;100472.16;;;16.46;69.07
46223;BME280;31943;51.410;7.564;2022-10-16T19:46:13;100483.59;;;16.43;69.45
46223;BME280;31943;51.410;7.564;2022-10-16T20:12:37;100513.97;;;16.76;70.21
46223;BME280;31943;51.410;7.564;2022-10-16T20:15:40;100518.31;;;16.80;70.06
46223;BME280;31943;51.410;7.564;2022-10-16T20:18:22;100505.16;;;16.77;70.26
46223;BME280;31943;51.410;7.564;2022-10-16T20:21:19;100484.97;;;16.78;70.63
46223;BME280;31943;51.410;7.564;2022-10-16T20:24:14;100477.09;;;16.76;70.38
46223;BME280;31943;51.410;7.564;2022-10-16T20:27:17;100496.38;;;16.78;70.39
46223;BME280;31943;51.410;7.564;2022-10-16T20:36:42;100492.91;;;16.76;70.35
46223;BME280;31943;51.410;7.564;2022-10-16T20:39:20;100492.91;;;16.73;70.58
46223;BME280;31943;51.410;7.564;2022-10-16T20:42:12;100492.06;;;16.70;70.55
46223;BME280;31943;51.410;7.564;2022-10-16T20:45:03;100493.00;;;16.67;70.28
46223;BME280;31943;51.410;7.564;2022-10-16T20:47:32;100482.50;;;16.64;70.05
46223;BME280;31943;51.410;7.564;2022-10-16T20:49:59;100486.94;;;16.59;69.51
46223;BME280;31943;51.410;7.564;2022-10-16T20:55:45;100490.53;;;16.50;69.59
46223;BME280;31943;51.410;7.564;2022-10-16T20:58:14;100488.81;;;16.46;69.54
46223;BME280;31943;51.410;7.564;2022-10-16T21:01:03;100487.13;;;16.40;69.00
46223;BME280;31943;51.410;7.564;2022-10-16T21:03:51;100481.91;;;16.36;69.38
46223;BME280;31943;51.410;7.564;2022-10-16T21:06:31;100482.91;;;16.24;69.46
46223;BME280;31943;51.410;7.564;2022-10-16T21:09:01;100482.97;;;16.19;69.81
46223;BME280;31943;51.410;7.564;2022-10-16T21:11:48;100480.31;;;16.19;69.94
46223;BME280;31943;51.410;7.564;2022-10-16T21:14:21;100492.59;;;16.19;69.74
46223;BME280;31943;51.410;7.564;2022-10-16T21:16:47;100498.78;;;16.16;69.62
46223;BME280;31943;51.410;7.564;2022-10-16T21:19:15;100490.88;;;16.15;69.72
46223;BME280;31943;51.410;7.564;2022-10-16T21:22:05;100491.78;;;16.11;69.46
46223;BME280;31943;51.410;7.564;2022-10-16T21:24:37;100487.44;;;16.10;69.37
46223;BME280;31943;51.410;7.564;2022-10-16T21:30:16;100488.34;;;16.04;69.11
46223;BME280;31943;51.410;7.564;2022-10-16T21:32:43;100493.69;;;15.98;69.04
46223;BME280;31943;51.410;7.564;2022-10-16T21:35:11;100487.56;;;15.93;68.95
46223;BME280;31943;51.410;7.564;2022-10-16T21:37:49;100490.19;;;15.91;69.04
46223;BME280;31943;51.410;7.564;2022-10-16T21:40:28;100490.25;;;15.85;68.98
46223;BME280;31943;51.410;7.564;2022-10-16T21:43:14;100481.50;;;15.83;69.04
46223;BME280;31943;51.410;7.564;2022-10-16T21:45:46;100493.78;;;15.81;69.03
46223;BME280;31943;51.410;7.564;2022-10-16T21:48:13;100488.53;;;15.81;68.70
46223;BME280;31943;51.410;7.564;2022-10-16T21:50:56;100478.06;;;15.78;68.71
46223;BME280;31943;51.410;7.564;2022-10-16T21:53:24;100483.31;;;15.73;68.93
46223;BME280;31943;51.410;7.564;2022-10-16T21:55:57;100478.94;;;15.71;68.96
46223;BME280;31943;51.410;7.564;2022-10-16T21:58:36;100477.16;;;15.71;69.12
46223;BME280;31943;51.410;7.564;2022-10-16T22:01:10;100475.44;;;15.67;69.09
46223;BME280;31943;51.410;7.564;2022-10-16T22:03:38;100485.16;;;15.56;68.96
46223;BME280;31943;51.410;7.564;2022-10-16T22:06:06;100486.16;;;15.39;69.72
46223;BME280;31943;51.410;7.564;2022-10-16T22:08:57;100481.81;;;15.37;70.42
46223;BME280;31943;51.410;7.564;2022-10-16T22:11:34;100480.03;;;15.36;70.46
46223;BME280;31943;51.410;7.564;2022-10-16T22:14:13;100466.88;;;15.37;70.45
46223;BME280;31943;51.410;7.564;2022-10-16T22:16:40;100467.75;;;15.39;70.56
46223;BME280;31943;51.410;7.564;2022-10-16T22:27:02;100459.00;;;15.37;69.66
46223;BME280;31943;51.410;7.564;2022-10-16T22:29:35;100460.75;;;15.37;69.60
46223;BME280;31943;51.410;7.564;2022-10-16T22:32:03;100466.94;;;15.31;69.54
46223;BME280;31943;51.410;7.564;2022-10-16T22:34:34;100462.59;;;15.22;69.91
46223;BME280;31943;51.410;7.564;2022-10-16T22:37:01;100464.34;;;15.20;70.19
46223;BME280;31943;51.410;7.564;2022-10-16T22:39:30;100458.22;;;15.21;70.37
46223;BME280;31943;51.410;7.564;2022-10-16T22:41:58;100464.34;;;15.23;70.28
46223;BME280;31943;51.410;7.564;2022-10-16T22:44:25;100466.97;;;15.22;70.16
46223;BME280;31943;51.410;7.564;2022-10-16T22:47:17;100464.34;;;15.20;70.07
46223;BME280;31943;51.410;7.564;2022-10-16T22:49:43;100466.09;;;15.23;70.04
46223;BME280;31943;51.410;7.564;2022-10-16T22:52:10;100461.72;;;15.19;69.81
46223;BME280;31943;51.410;7.564;2022-10-16T22:54:40;100468.75;;;15.17;69.89
46223;BME280;31943;51.410;7.564;2022-10-16T23:00:12;100458.25;;;15.12;69.72
46223;BME280;31943;51.410;7.564;2022-10-16T23:02:54;100466.16;;;15.09;69.63
46223;BME280;31943;51.410;7.564;2022-10-16T23:05:22;100465.31;;;15.06;69.56
46223;BME280;31943;51.410;7.564;2022-10-16T23:07:49;100472.34;;;15.03;69.59
46223;BME280;31943;51.410;7.564;2022-10-16T23:10:32;100466.22;;;15.01;69.37
46223;BME280;31943;51.410;7.564;2022-10-16T23:12:58;100457.47;;;14.99;69.49
46223;BME280;31943;51.410;7.564;2022-10-16T23:18:59;100460.97;;;14.95;69.52
46223;BME280;31943;51.410;7.564;2022-10-16T23:21:27;100465.34;;;14.93;69.34
46223;BME280;31943;51.410;7.564;2022-10-16T23:23:53;100464.50;;;14.93;69.32
46223;BME280;31943;51.410;7.564;2022-10-16T23:26:28;100464.50;;;14.93;69.12
46223;BME280;31943;51.410;7.564;2022-10-16T23:28:58;100468.00;;;14.92;69.34
46223;BME280;31943;51.410;7.564;2022-10-16T23:34:24;100475.03;;;14.87;69.19
46223;BME280;31943;51.410;7.564;2022-10-16T23:37:13;100470.66;;;14.79;69.30
46223;BME280;31943;51.410;7.564;2022-10-16T23:39:39;100470.69;;;14.78;69.28
46223;BME280;31943;51.410;7.564;2022-10-16T23:42:05;100468.94;;;14.78;69.21
46223;BME280;31943;51.410;7.564;2022-10-16T23:44:31;100470.69;;;14.76;69.26
46223;BME280;31943;51.410;7.564;2022-10-16T23:47:06;100467.19;;;14.73;69.18
46223;BME280;31943;51.410;7.564;2022-10-16T23:49:57;100474.22;;;14.71;69.04
46223;BME280;31943;51.410;7.564;2022-10-16T23:52:26;100474.22;;;14.68;69.28
46223;BME280;31943;51.410;7.564;2022-10-16T23:55:04;100477.72;;;14.67;69.18
46223;BME280;31943;51.410;7.564;2022-10-16T23:57:51;100467.22;;;14.68;69.50
